sensor_id;sensor_type;location;lat;lon;timestamp;P1;durP1;ratioP1;P2;durP2;ratioP2
15629;SDS011;7914;50.842;0.166;2022-07-17T00:00:48;8.97;;;2.97;;
15629;SDS011;7914;50.842;0.166;2022-07-17T00:03:14;4.20;;;3.00;;
15629;SDS011;7914;50.842;0.166;2022-07-17T00:05:42;7.07;;;2.83;;
15629;SDS011;7914;50.842;0.166;2022-07-17T00:08:09;4.53;;;2.83;;
15629;SDS011;7914;50.842;0.166;2022-07-17T00:10:35;5.07;;;2.60;;
15629;SDS011;7914;50.842;0.166;2022-07-17T00:13:02;4.13;;;2.97;;
15629;SDS011;7914;50.842;0.166;2022-07-17T00:15:29;5.63;;;2.80;;
15629;SDS011;7914;50.842;0.166;2022-07-17T00:17:55;5.17;;;3.00;;
15629;SDS011;7914;50.842;0.166;2022-07-17T00:20:21;5.27;;;3.30;;
15629;SDS011;7914;50.842;0.166;2022-07-17T00:22:50;3.83;;;2.90;;
15629;SDS011;7914;50.842;0.166;2022-07-17T00:25:17;7.00;;;3.07;;
15629;SDS011;7914;50.842;0.166;2022-07-17T00:27:43;5.13;;;2.87;;
15629;SDS011;7914;50.842;0.166;2022-07-17T00:30:08;5.90;;;2.77;;
15629;SDS011;7914;50.842;0.166;2022-07-17T00:32:35;5.47;;;3.00;;
15629;SDS011;7914;50.842;0.166;2022-07-17T00:35:00;4.47;;;2.57;;
15629;SDS011;7914;50.842;0.166;2022-07-17T00:37:26;10.33;;;3.47;;
15629;SDS011;7914;50.842;0.166;2022-07-17T00:39:52;7.77;;;3.00;;
15629;SDS011;7914;50.842;0.166;2022-07-17T00:42:19;5.03;;;2.97;;
15629;SDS011;7914;50.842;0.166;2022-07-17T00:44:45;5.07;;;3.10;;
15629;SDS011;7914;50.842;0.166;2022-07-17T00:47:12;4.43;;;2.87;;
15629;SDS011;7914;50.842;0.166;2022-07-17T00:49:39;6.40;;;2.90;;
15629;SDS011;7914;50.842;0.166;2022-07-17T00:52:05;3.60;;;3.00;;
15629;SDS011;7914;50.842;0.166;2022-07-17T00:54:34;6.23;;;3.30;;
15629;SDS011;7914;50.842;0.166;2022-07-17T00:57:02;5.67;;;3.13;;
15629;SDS011;7914;50.842;0.166;2022-07-17T00:59:33;3.73;;;2.70;;
15629;SDS011;7914;50.842;0.166;2022-07-17T01:02:04;4.20;;;2.83;;
15629;SDS011;7914;50.842;0.166;2022-07-17T01:04:34;6.07;;;3.37;;
15629;SDS011;7914;50.842;0.166;2022-07-17T01:07:00;5.07;;;3.47;;
15629;SDS011;7914;50.842;0.166;2022-07-17T01:09:27;7.57;;;3.30;;
15629;SDS011;7914;50.842;0.166;2022-07-17T01:11:54;5.43;;;3.30;;
15629;SDS011;7914;50.842;0.166;2022-07-17T01:14:21;6.20;;;3.20;;
15629;SDS011;7914;50.842;0.166;2022-07-17T01:16:48;3.43;;;2.80;;
15629;SDS011;7914;50.842;0.166;2022-07-17T01:19:14;5.93;;;3.13;;
15629;SDS011;7914;50.842;0.166;2022-07-17T01:21:41;7.00;;;3.30;;
15629;SDS011;7914;50.842;0.166;2022-07-17T01:24:08;4.07;;;3.13;;
15629;SDS011;7914;50.842;0.166;2022-07-17T01:26:34;7.13;;;3.47;;
15629;SDS011;7914;50.842;0.166;2022-07-17T01:29:00;6.43;;;3.57;;
15629;SDS011;7914;50.842;0.166;2022-07-17T01:31:26;7.33;;;3.30;;
15629;SDS011;7914;50.842;0.166;2022-07-17T01:33:51;6.43;;;3.40;;
15629;SDS011;7914;50.842;0.166;2022-07-17T01:36:24;4.53;;;3.40;;
15629;SDS011;7914;50.842;0.166;2022-07-17T01:38:50;4.60;;;3.13;;
15629;SDS011;7914;50.842;0.166;2022-07-17T01:41:16;3.93;;;3.47;;
15629;SDS011;7914;50.842;0.166;2022-07-17T01:43:42;4.23;;;3.07;;
15629;SDS011;7914;50.842;0.166;2022-07-17T01:46:08;3.80;;;3.00;;
15629;SDS011;7914;50.842;0.166;2022-07-17T01:48:34;4.33;;;3.33;;
15629;SDS011;7914;50.842;0.166;2022-07-17T01:50:59;3.57;;;3.20;;
15629;SDS011;7914;50.842;0.166;2022-07-17T01:53:25;4.53;;;3.23;;
15629;SDS011;7914;50.842;0.166;2022-07-17T01:55:51;5.47;;;3.50;;
15629;SDS011;7914;50.842;0.166;2022-07-17T01:58:17;5.40;;;3.60;;
15629;SDS011;7914;50.842;0.166;2022-07-17T02:00:43;4.57;;;3.27;;
15629;SDS011;7914;50.842;0.166;2022-07-17T02:03:09;3.57;;;3.27;;
15629;SDS011;7914;50.842;0.166;2022-07-17T02:05:35;5.87;;;3.43;;
15629;SDS011;7914;50.842;0.166;2022-07-17T02:08:01;7.70;;;3.30;;
15629;SDS011;7914;50.842;0.166;2022-07-17T02:10:27;4.67;;;3.57;;
15629;SDS011;7914;50.842;0.166;2022-07-17T02:12:53;6.33;;;3.30;;
15629;SDS011;7914;50.842;0.166;2022-07-17T02:15:19;7.37;;;3.67;;
15629;SDS011;7914;50.842;0.166;2022-07-17T02:17:45;4.63;;;3.10;;
15629;SDS011;7914;50.842;0.166;2022-07-17T02:20:11;8.10;;;4.03;;
15629;SDS011;7914;50.842;0.166;2022-07-17T02:22:38;5.07;;;3.80;;
15629;SDS011;7914;50.842;0.166;2022-07-17T02:25:04;5.37;;;3.60;;
15629;SDS011;7914;50.842;0.166;2022-07-17T02:27:32;3.43;;;3.13;;
15629;SDS011;7914;50.842;0.166;2022-07-17T02:29:58;7.00;;;3.50;;
15629;SDS011;7914;50.842;0.166;2022-07-17T02:32:26;4.80;;;3.10;;
15629;SDS011;7914;50.842;0.166;2022-07-17T02:34:51;5.40;;;3.63;;
15629;SDS011;7914;50.842;0.166;2022-07-17T02:37:17;5.43;;;3.23;;
15629;SDS011;7914;50.842;0.166;2022-07-17T02:39:43;4.83;;;3.30;;
15629;SDS011;7914;50.842;0.166;2022-07-17T02:42:21;5.07;;;3.27;;
15629;SDS011;7914;50.842;0.166;2022-07-17T02:44:49;4.83;;;3.50;;
15629;SDS011;7914;50.842;0.166;2022-07-17T02:47:26;6.73;;;3.27;;
15629;SDS011;7914;50.842;0.166;2022-07-17T02:49:55;4.97;;;3.50;;
15629;SDS011;7914;50.842;0.166;2022-07-17T02:52:21;3.90;;;3.13;;
15629;SDS011;7914;50.842;0.166;2022-07-17T02:54:47;5.43;;;3.63;;
15629;SDS011;7914;50.842;0.166;2022-07-17T02:57:13;4.87;;;3.53;;
15629;SDS011;7914;50.842;0.166;2022-07-17T02:59:39;6.20;;;3.50;;
15629;SDS011;7914;50.842;0.166;2022-07-17T03:02:05;4.77;;;3.63;;
15629;SDS011;7914;50.842;0.166;2022-07-17T03:04:31;4.17;;;3.70;;
15629;SDS011;7914;50.842;0.166;2022-07-17T03:06:57;4.03;;;3.30;;
15629;SDS011;7914;50.842;0.166;2022-07-17T03:09:23;3.40;;;3.10;;
15629;SDS011;7914;50.842;0.166;2022-07-17T03:11:48;6.10;;;3.27;;
15629;SDS011;7914;50.842;0.166;2022-07-17T03:14:14;3.83;;;3.50;;
15629;SDS011;7914;50.842;0.166;2022-07-17T03:16:40;4.67;;;3.63;;
15629;SDS011;7914;50.842;0.166;2022-07-17T03:19:06;4.93;;;3.97;;
15629;SDS011;7914;50.842;0.166;2022-07-17T03:21:31;3.80;;;3.50;;
15629;SDS011;7914;50.842;0.166;2022-07-17T03:23:57;5.40;;;3.97;;
15629;SDS011;7914;50.842;0.166;2022-07-17T03:26:23;4.50;;;3.90;;
15629;SDS011;7914;50.842;0.166;2022-07-17T03:28:48;4.47;;;4.03;;
15629;SDS011;7914;50.842;0.166;2022-07-17T03:31:14;6.93;;;4.07;;
15629;SDS011;7914;50.842;0.166;2022-07-17T03:33:40;6.17;;;3.87;;
15629;SDS011;7914;50.842;0.166;2022-07-17T03:36:06;6.13;;;3.97;;
15629;SDS011;7914;50.842;0.166;2022-07-17T03:38:32;6.73;;;4.10;;
15629;SDS011;7914;50.842;0.166;2022-07-17T03:40:58;4.50;;;4.10;;
15629;SDS011;7914;50.842;0.166;2022-07-17T03:43:24;4.33;;;3.93;;
15629;SDS011;7914;50.842;0.166;2022-07-17T03:45:50;4.30;;;3.90;;
15629;SDS011;7914;50.842;0.166;2022-07-17T03:48:15;6.90;;;3.73;;
15629;SDS011;7914;50.842;0.166;2022-07-17T03:50:41;6.53;;;4.17;;
15629;SDS011;7914;50.842;0.166;2022-07-17T03:53:07;7.97;;;4.10;;
15629;SDS011;7914;50.842;0.166;2022-07-17T03:55:33;5.13;;;4.00;;
15629;SDS011;7914;50.842;0.166;2022-07-17T03:57:59;6.70;;;4.13;;
15629;SDS011;7914;50.842;0.166;2022-07-17T04:00:25;8.07;;;4.23;;
15629;SDS011;7914;50.842;0.166;2022-07-17T04:02:50;4.80;;;4.30;;
15629;SDS011;7914;50.842;0.166;2022-07-17T04:05:16;5.30;;;4.57;;
15629;SDS011;7914;50.842;0.166;2022-07-17T04:07:42;8.67;;;4.57;;
15629;SDS011;7914;50.842;0.166;2022-07-17T04:10:09;4.27;;;3.50;;
15629;SDS011;7914;50.842;0.166;2022-07-17T04:12:36;8.37;;;4.67;;
15629;SDS011;7914;50.842;0.166;2022-07-17T04:15:02;6.97;;;4.30;;
15629;SDS011;7914;50.842;0.166;2022-07-17T04:17:29;6.57;;;4.70;;
15629;SDS011;7914;50.842;0.166;2022-07-17T04:19:55;5.50;;;4.60;;
15629;SDS011;7914;50.842;0.166;2022-07-17T04:22:21;6.57;;;4.50;;
15629;SDS011;7914;50.842;0.166;2022-07-17T04:24:46;7.17;;;4.77;;
15629;SDS011;7914;50.842;0.166;2022-07-17T04:27:12;8.10;;;4.33;;
15629;SDS011;7914;50.842;0.166;2022-07-17T04:29:38;4.87;;;3.90;;
15629;SDS011;7914;50.842;0.166;2022-07-17T04:32:04;4.57;;;4.10;;
15629;SDS011;7914;50.842;0.166;2022-07-17T04:34:30;4.30;;;3.70;;
15629;SDS011;7914;50.842;0.166;2022-07-17T04:36:58;5.53;;;4.17;;
15629;SDS011;7914;50.842;0.166;2022-07-17T04:39:24;5.33;;;4.40;;
15629;SDS011;7914;50.842;0.166;2022-07-17T04:41:50;5.17;;;4.40;;
15629;SDS011;7914;50.842;0.166;2022-07-17T04:44:16;8.40;;;4.60;;
15629;SDS011;7914;50.842;0.166;2022-07-17T04:46:42;4.23;;;3.80;;
15629;SDS011;7914;50.842;0.166;2022-07-17T04:49:08;5.83;;;4.30;;
15629;SDS011;7914;50.842;0.166;2022-07-17T04:51:34;5.53;;;4.00;;
15629;SDS011;7914;50.842;0.166;2022-07-17T04:54:00;7.37;;;4.13;;
15629;SDS011;7914;50.842;0.166;2022-07-17T04:56:25;5.83;;;4.27;;
15629;SDS011;7914;50.842;0.166;2022-07-17T04:58:51;5.97;;;3.73;;
15629;SDS011;7914;50.842;0.166;2022-07-17T05:01:17;4.53;;;3.53;;
15629;SDS011;7914;50.842;0.166;2022-07-17T05:03:43;7.40;;;3.90;;
15629;SDS011;7914;50.842;0.166;2022-07-17T05:06:09;6.20;;;3.30;;
15629;SDS011;7914;50.842;0.166;2022-07-17T05:08:35;4.40;;;3.60;;
15629;SDS011;7914;50.842;0.166;2022-07-17T05:11:01;5.27;;;3.10;;
15629;SDS011;7914;50.842;0.166;2022-07-17T05:13:27;4.07;;;3.47;;
15629;SDS011;7914;50.842;0.166;2022-07-17T05:15:52;4.43;;;3.27;;
15629;SDS011;7914;50.842;0.166;2022-07-17T05:18:18;3.33;;;3.00;;
15629;SDS011;7914;50.842;0.166;2022-07-17T05:20:44;6.07;;;2.97;;
15629;SDS011;7914;50.842;0.166;2022-07-17T05:23:10;4.67;;;3.10;;
15629;SDS011;7914;50.842;0.166;2022-07-17T05:25:35;6.70;;;2.87;;
15629;SDS011;7914;50.842;0.166;2022-07-17T05:28:02;4.30;;;2.77;;
15629;SDS011;7914;50.842;0.166;2022-07-17T05:30:27;5.07;;;2.60;;
15629;SDS011;7914;50.842;0.166;2022-07-17T05:32:53;4.73;;;2.40;;
15629;SDS011;7914;50.842;0.166;2022-07-17T05:35:19;6.60;;;2.70;;
15629;SDS011;7914;50.842;0.166;2022-07-17T05:37:45;10.35;;;2.80;;
15629;SDS011;7914;50.842;0.166;2022-07-17T05:40:11;3.08;;;2.58;;
15629;SDS011;7914;50.842;0.166;2022-07-17T05:42:37;7.35;;;2.80;;
15629;SDS011;7914;50.842;0.166;2022-07-17T05:45:03;5.22;;;2.70;;
15629;SDS011;7914;50.842;0.166;2022-07-17T05:47:30;5.72;;;3.03;;
15629;SDS011;7914;50.842;0.166;2022-07-17T05:49:56;5.85;;;2.60;;
15629;SDS011;7914;50.842;0.166;2022-07-17T05:52:21;4.10;;;2.92;;
15629;SDS011;7914;50.842;0.166;2022-07-17T05:54:47;5.00;;;2.72;;
15629;SDS011;7914;50.842;0.166;2022-07-17T05:57:13;4.75;;;2.75;;
15629;SDS011;7914;50.842;0.166;2022-07-17T05:59:39;5.80;;;2.50;;
15629;SDS011;7914;50.842;0.166;2022-07-17T06:02:04;4.03;;;2.70;;
15629;SDS011;7914;50.842;0.166;2022-07-17T06:04:30;3.45;;;2.53;;
15629;SDS011;7914;50.842;0.166;2022-07-17T06:06:56;4.78;;;2.55;;
15629;SDS011;7914;50.842;0.166;2022-07-17T06:09:22;3.90;;;2.80;;
15629;SDS011;7914;50.842;0.166;2022-07-17T06:11:48;5.90;;;3.00;;
15629;SDS011;7914;50.842;0.166;2022-07-17T06:14:13;4.10;;;2.80;;
15629;SDS011;7914;50.842;0.166;2022-07-17T06:16:39;4.40;;;2.70;;
15629;SDS011;7914;50.842;0.166;2022-07-17T06:19:05;5.00;;;2.63;;
15629;SDS011;7914;50.842;0.166;2022-07-17T06:21:31;6.40;;;2.93;;
15629;SDS011;7914;50.842;0.166;2022-07-17T06:23:56;5.40;;;2.60;;
15629;SDS011;7914;50.842;0.166;2022-07-17T06:26:22;7.23;;;3.20;;
15629;SDS011;7914;50.842;0.166;2022-07-17T06:28:48;8.93;;;2.80;;
15629;SDS011;7914;50.842;0.166;2022-07-17T06:31:14;5.90;;;3.07;;
15629;SDS011;7914;50.842;0.166;2022-07-17T06:33:40;4.97;;;2.80;;
15629;SDS011;7914;50.842;0.166;2022-07-17T06:36:06;8.77;;;2.80;;
15629;SDS011;7914;50.842;0.166;2022-07-17T06:38:32;5.30;;;3.07;;
15629;SDS011;7914;50.842;0.166;2022-07-17T06:40:59;4.40;;;2.27;;
15629;SDS011;7914;50.842;0.166;2022-07-17T06:43:26;5.43;;;2.60;;
15629;SDS011;7914;50.842;0.166;2022-07-17T06:45:51;3.47;;;2.40;;
15629;SDS011;7914;50.842;0.166;2022-07-17T06:48:19;3.53;;;2.47;;
15629;SDS011;7914;50.842;0.166;2022-07-17T06:50:45;7.47;;;3.07;;
15629;SDS011;7914;50.842;0.166;2022-07-17T06:53:11;3.13;;;2.17;;
15629;SDS011;7914;50.842;0.166;2022-07-17T06:55:38;5.13;;;2.60;;
15629;SDS011;7914;50.842;0.166;2022-07-17T06:58:03;3.97;;;2.40;;
15629;SDS011;7914;50.842;0.166;2022-07-17T07:00:30;5.47;;;2.43;;
15629;SDS011;7914;50.842;0.166;2022-07-17T07:02:56;4.87;;;2.43;;
15629;SDS011;7914;50.842;0.166;2022-07-17T07:05:22;5.80;;;2.23;;
15629;SDS011;7914;50.842;0.166;2022-07-17T07:07:48;5.07;;;2.55;;
15629;SDS011;7914;50.842;0.166;2022-07-17T07:10:13;5.50;;;2.50;;
15629;SDS011;7914;50.842;0.166;2022-07-17T07:12:40;5.63;;;2.30;;
15629;SDS011;7914;50.842;0.166;2022-07-17T07:15:06;4.90;;;2.47;;
15629;SDS011;7914;50.842;0.166;2022-07-17T07:17:33;4.15;;;2.47;;
15629;SDS011;7914;50.842;0.166;2022-07-17T07:20:00;5.88;;;2.38;;
15629;SDS011;7914;50.842;0.166;2022-07-17T07:22:26;6.30;;;2.42;;
15629;SDS011;7914;50.842;0.166;2022-07-17T07:24:52;5.53;;;2.60;;
15629;SDS011;7914;50.842;0.166;2022-07-17T07:27:18;4.95;;;2.60;;
15629;SDS011;7914;50.842;0.166;2022-07-17T07:29:43;4.28;;;2.55;;
15629;SDS011;7914;50.842;0.166;2022-07-17T07:32:09;6.25;;;2.60;;
15629;SDS011;7914;50.842;0.166;2022-07-17T07:34:35;8.43;;;2.75;;
15629;SDS011;7914;50.842;0.166;2022-07-17T07:37:01;4.60;;;2.63;;
15629;SDS011;7914;50.842;0.166;2022-07-17T07:39:27;7.50;;;2.85;;
15629;SDS011;7914;50.842;0.166;2022-07-17T07:41:52;5.80;;;2.50;;
15629;SDS011;7914;50.842;0.166;2022-07-17T07:44:18;4.22;;;2.45;;
15629;SDS011;7914;50.842;0.166;2022-07-17T07:46:44;5.05;;;2.30;;
15629;SDS011;7914;50.842;0.166;2022-07-17T07:49:10;6.50;;;2.63;;
15629;SDS011;7914;50.842;0.166;2022-07-17T07:51:36;4.53;;;2.28;;
15629;SDS011;7914;50.842;0.166;2022-07-17T07:54:02;4.95;;;2.60;;
15629;SDS011;7914;50.842;0.166;2022-07-17T07:56:27;3.08;;;2.00;;
15629;SDS011;7914;50.842;0.166;2022-07-17T07:58:53;4.03;;;2.70;;
15629;SDS011;7914;50.842;0.166;2022-07-17T08:01:19;4.20;;;2.25;;
15629;SDS011;7914;50.842;0.166;2022-07-17T08:03:44;5.28;;;2.08;;
15629;SDS011;7914;50.842;0.166;2022-07-17T08:06:10;2.85;;;2.17;;
15629;SDS011;7914;50.842;0.166;2022-07-17T08:08:36;3.42;;;2.40;;
15629;SDS011;7914;50.842;0.166;2022-07-17T08:11:02;3.30;;;2.28;;
15629;SDS011;7914;50.842;0.166;2022-07-17T08:13:27;5.13;;;2.25;;
15629;SDS011;7914;50.842;0.166;2022-07-17T08:15:53;2.90;;;2.15;;
15629;SDS011;7914;50.842;0.166;2022-07-17T08:18:19;4.10;;;1.90;;
15629;SDS011;7914;50.842;0.166;2022-07-17T08:20:45;3.00;;;1.98;;
15629;SDS011;7914;50.842;0.166;2022-07-17T08:23:11;3.22;;;2.10;;
15629;SDS011;7914;50.842;0.166;2022-07-17T08:25:36;5.88;;;2.40;;
15629;SDS011;7914;50.842;0.166;2022-07-17T08:28:02;5.85;;;2.55;;
15629;SDS011;7914;50.842;0.166;2022-07-17T08:30:29;4.07;;;2.17;;
15629;SDS011;7914;50.842;0.166;2022-07-17T08:32:59;2.88;;;2.22;;
15629;SDS011;7914;50.842;0.166;2022-07-17T08:35:26;6.45;;;2.35;;
15629;SDS011;7914;50.842;0.166;2022-07-17T08:37:52;6.60;;;2.10;;
15629;SDS011;7914;50.842;0.166;2022-07-17T08:40:25;2.58;;;1.80;;
15629;SDS011;7914;50.842;0.166;2022-07-17T08:42:58;3.50;;;2.00;;
15629;SDS011;7914;50.842;0.166;2022-07-17T08:45:24;2.65;;;1.80;;
15629;SDS011;7914;50.842;0.166;2022-07-17T08:47:51;6.07;;;2.13;;
15629;SDS011;7914;50.842;0.166;2022-07-17T08:50:26;6.43;;;1.90;;
15629;SDS011;7914;50.842;0.166;2022-07-17T08:52:54;5.40;;;1.70;;
15629;SDS011;7914;50.842;0.166;2022-07-17T08:55:20;4.82;;;2.22;;
15629;SDS011;7914;50.842;0.166;2022-07-17T08:57:45;5.07;;;1.92;;
15629;SDS011;7914;50.842;0.166;2022-07-17T09:00:15;3.10;;;2.20;;
15629;SDS011;7914;50.842;0.166;2022-07-17T09:03:00;2.97;;;2.10;;
15629;SDS011;7914;50.842;0.166;2022-07-17T09:05:29;2.70;;;2.00;;
15629;SDS011;7914;50.842;0.166;2022-07-17T09:07:59;4.60;;;2.00;;
15629;SDS011;7914;50.842;0.166;2022-07-17T09:10:33;4.82;;;1.90;;
15629;SDS011;7914;50.842;0.166;2022-07-17T09:15:39;4.13;;;2.17;;
15629;SDS011;7914;50.842;0.166;2022-07-17T09:18:05;1.83;;;1.70;;
15629;SDS011;7914;50.842;0.166;2022-07-17T09:20:31;3.22;;;1.90;;
15629;SDS011;7914;50.842;0.166;2022-07-17T09:22:57;2.97;;;1.92;;
15629;SDS011;7914;50.842;0.166;2022-07-17T09:25:37;4.75;;;2.30;;
15629;SDS011;7914;50.842;0.166;2022-07-17T09:28:11;2.67;;;1.75;;
15629;SDS011;7914;50.842;0.166;2022-07-17T09:30:43;7.38;;;1.80;;
15629;SDS011;7914;50.842;0.166;2022-07-17T09:33:12;6.80;;;1.90;;
15629;SDS011;7914;50.842;0.166;2022-07-17T09:36:05;2.05;;;1.67;;
15629;SDS011;7914;50.842;0.166;2022-07-17T09:38:34;2.53;;;1.60;;
15629;SDS011;7914;50.842;0.166;2022-07-17T09:41:12;2.20;;;1.65;;
15629;SDS011;7914;50.842;0.166;2022-07-17T09:43:55;4.45;;;1.80;;
15629;SDS011;7914;50.842;0.166;2022-07-17T09:46:25;3.33;;;1.85;;
15629;SDS011;7914;50.842;0.166;2022-07-17T09:48:56;5.00;;;2.10;;
15629;SDS011;7914;50.842;0.166;2022-07-17T09:51:39;2.60;;;1.73;;
15629;SDS011;7914;50.842;0.166;2022-07-17T09:54:06;3.17;;;2.00;;
15629;SDS011;7914;50.842;0.166;2022-07-17T09:56:33;2.25;;;1.60;;
15629;SDS011;7914;50.842;0.166;2022-07-17T09:59:18;4.40;;;1.85;;
15629;SDS011;7914;50.842;0.166;2022-07-17T10:01:44;2.15;;;1.33;;
15629;SDS011;7914;50.842;0.166;2022-07-17T10:04:14;3.05;;;2.08;;
15629;SDS011;7914;50.842;0.166;2022-07-17T10:06:42;2.83;;;1.60;;
15629;SDS011;7914;50.842;0.166;2022-07-17T10:09:08;1.50;;;1.40;;
15629;SDS011;7914;50.842;0.166;2022-07-17T10:11:38;2.35;;;1.50;;
15629;SDS011;7914;50.842;0.166;2022-07-17T10:14:05;2.25;;;1.65;;
15629;SDS011;7914;50.842;0.166;2022-07-17T10:16:35;2.33;;;1.52;;
15629;SDS011;7914;50.842;0.166;2022-07-17T10:19:13;3.10;;;1.85;;
15629;SDS011;7914;50.842;0.166;2022-07-17T10:21:57;1.70;;;1.60;;
15629;SDS011;7914;50.842;0.166;2022-07-17T10:24:29;1.92;;;1.60;;
15629;SDS011;7914;50.842;0.166;2022-07-17T10:26:56;2.45;;;1.80;;
15629;SDS011;7914;50.842;0.166;2022-07-17T10:31:52;2.83;;;1.75;;
15629;SDS011;7914;50.842;0.166;2022-07-17T10:34:18;2.05;;;1.90;;
15629;SDS011;7914;50.842;0.166;2022-07-17T10:36:47;1.83;;;1.63;;
15629;SDS011;7914;50.842;0.166;2022-07-17T10:39:17;2.58;;;1.88;;
15629;SDS011;7914;50.842;0.166;2022-07-17T10:41:55;1.90;;;1.80;;
15629;SDS011;7914;50.842;0.166;2022-07-17T10:44:26;2.30;;;1.98;;
15629;SDS011;7914;50.842;0.166;2022-07-17T10:46:53;2.08;;;1.85;;
15629;SDS011;7914;50.842;0.166;2022-07-17T10:49:19;3.10;;;1.85;;
15629;SDS011;7914;50.842;0.166;2022-07-17T10:51:46;3.60;;;1.65;;
15629;SDS011;7914;50.842;0.166;2022-07-17T10:54:11;3.28;;;1.88;;
15629;SDS011;7914;50.842;0.166;2022-07-17T10:56:38;2.90;;;1.80;;
15629;SDS011;7914;50.842;0.166;2022-07-17T10:59:09;2.67;;;1.70;;
15629;SDS011;7914;50.842;0.166;2022-07-17T11:01:36;1.88;;;1.58;;
15629;SDS011;7914;50.842;0.166;2022-07-17T11:04:02;1.90;;;1.70;;
15629;SDS011;7914;50.842;0.166;2022-07-17T11:06:31;2.70;;;1.73;;
15629;SDS011;7914;50.842;0.166;2022-07-17T11:09:02;2.42;;;2.05;;
15629;SDS011;7914;50.842;0.166;2022-07-17T11:11:44;2.10;;;1.88;;
15629;SDS011;7914;50.842;0.166;2022-07-17T11:16:46;4.03;;;2.15;;
15629;SDS011;7914;50.842;0.166;2022-07-17T11:19:29;2.67;;;1.70;;
15629;SDS011;7914;50.842;0.166;2022-07-17T11:21:57;2.47;;;1.90;;
15629;SDS011;7914;50.842;0.166;2022-07-17T11:24:24;4.75;;;1.90;;
15629;SDS011;7914;50.842;0.166;2022-07-17T11:27:00;2.60;;;2.13;;
15629;SDS011;7914;50.842;0.166;2022-07-17T11:29:26;4.13;;;2.20;;
15629;SDS011;7914;50.842;0.166;2022-07-17T11:31:55;3.38;;;3.00;;
15629;SDS011;7914;50.842;0.166;2022-07-17T11:34:24;3.33;;;2.38;;
15629;SDS011;7914;50.842;0.166;2022-07-17T11:36:50;3.28;;;2.47;;
15629;SDS011;7914;50.842;0.166;2022-07-17T11:39:23;3.78;;;2.50;;
15629;SDS011;7914;50.842;0.166;2022-07-17T11:41:50;4.63;;;2.28;;
15629;SDS011;7914;50.842;0.166;2022-07-17T11:44:21;2.72;;;2.30;;
15629;SDS011;7914;50.842;0.166;2022-07-17T11:46:49;4.80;;;2.08;;
15629;SDS011;7914;50.842;0.166;2022-07-17T11:51:54;6.88;;;2.70;;
15629;SDS011;7914;50.842;0.166;2022-07-17T11:54:21;3.50;;;2.65;;
15629;SDS011;7914;50.842;0.166;2022-07-17T11:56:51;3.55;;;2.50;;
15629;SDS011;7914;50.842;0.166;2022-07-17T11:59:27;3.83;;;2.22;;
15629;SDS011;7914;50.842;0.166;2022-07-17T12:01:55;3.38;;;2.55;;
15629;SDS011;7914;50.842;0.166;2022-07-17T12:04:22;2.75;;;2.08;;
15629;SDS011;7914;50.842;0.166;2022-07-17T12:07:01;2.83;;;2.50;;
15629;SDS011;7914;50.842;0.166;2022-07-17T12:09:28;3.05;;;2.10;;
15629;SDS011;7914;50.842;0.166;2022-07-17T12:11:58;2.60;;;2.40;;
15629;SDS011;7914;50.842;0.166;2022-07-17T12:14:25;4.07;;;2.65;;
15629;SDS011;7914;50.842;0.166;2022-07-17T12:16:51;5.18;;;3.05;;
15629;SDS011;7914;50.842;0.166;2022-07-17T12:19:18;5.50;;;4.03;;
15629;SDS011;7914;50.842;0.166;2022-07-17T12:24:29;3.50;;;3.20;;
15629;SDS011;7914;50.842;0.166;2022-07-17T12:27:03;3.95;;;3.40;;
15629;SDS011;7914;50.842;0.166;2022-07-17T12:29:30;4.95;;;3.83;;
15629;SDS011;7914;50.842;0.166;2022-07-17T12:32:15;3.95;;;3.20;;
15629;SDS011;7914;50.842;0.166;2022-07-17T12:34:44;4.25;;;3.28;;
15629;SDS011;7914;50.842;0.166;2022-07-17T12:37:15;5.20;;;3.10;;
15629;SDS011;7914;50.842;0.166;2022-07-17T12:39:42;4.35;;;3.63;;
15629;SDS011;7914;50.842;0.166;2022-07-17T12:42:09;4.32;;;3.92;;
15629;SDS011;7914;50.842;0.166;2022-07-17T12:44:35;4.95;;;4.10;;
15629;SDS011;7914;50.842;0.166;2022-07-17T12:47:02;6.18;;;4.22;;
15629;SDS011;7914;50.842;0.166;2022-07-17T12:49:28;4.13;;;3.72;;
15629;SDS011;7914;50.842;0.166;2022-07-17T12:51:54;4.00;;;3.30;;
15629;SDS011;7914;50.842;0.166;2022-07-17T12:54:20;4.57;;;3.65;;
15629;SDS011;7914;50.842;0.166;2022-07-17T12:56:46;4.05;;;3.65;;
15629;SDS011;7914;50.842;0.166;2022-07-17T12:59:12;4.20;;;3.80;;
15629;SDS011;7914;50.842;0.166;2022-07-17T13:01:38;4.93;;;3.25;;
15629;SDS011;7914;50.842;0.166;2022-07-17T13:04:04;4.93;;;3.97;;
15629;SDS011;7914;50.842;0.166;2022-07-17T13:06:30;5.28;;;3.53;;
15629;SDS011;7914;50.842;0.166;2022-07-17T13:08:57;5.35;;;3.25;;
15629;SDS011;7914;50.842;0.166;2022-07-17T13:11:26;3.72;;;3.42;;
15629;SDS011;7914;50.842;0.166;2022-07-17T13:13:52;3.53;;;3.22;;
15629;SDS011;7914;50.842;0.166;2022-07-17T13:16:18;7.05;;;3.67;;
15629;SDS011;7914;50.842;0.166;2022-07-17T13:18:44;3.47;;;3.17;;
15629;SDS011;7914;50.842;0.166;2022-07-17T13:21:10;3.13;;;2.88;;
15629;SDS011;7914;50.842;0.166;2022-07-17T13:23:36;7.82;;;3.50;;
15629;SDS011;7914;50.842;0.166;2022-07-17T13:26:02;3.50;;;3.20;;
15629;SDS011;7914;50.842;0.166;2022-07-17T13:28:28;3.88;;;3.35;;
15629;SDS011;7914;50.842;0.166;2022-07-17T13:30:55;4.05;;;3.28;;
15629;SDS011;7914;50.842;0.166;2022-07-17T13:33:21;3.60;;;3.17;;
15629;SDS011;7914;50.842;0.166;2022-07-17T13:35:48;5.18;;;3.40;;
15629;SDS011;7914;50.842;0.166;2022-07-17T13:38:13;4.05;;;3.63;;
15629;SDS011;7914;50.842;0.166;2022-07-17T13:40:39;3.20;;;2.85;;
15629;SDS011;7914;50.842;0.166;2022-07-17T13:43:06;5.85;;;3.22;;
15629;SDS011;7914;50.842;0.166;2022-07-17T13:45:32;4.15;;;3.42;;
15629;SDS011;7914;50.842;0.166;2022-07-17T13:47:59;3.95;;;3.53;;
15629;SDS011;7914;50.842;0.166;2022-07-17T13:50:25;4.80;;;3.35;;
15629;SDS011;7914;50.842;0.166;2022-07-17T13:52:52;5.82;;;3.25;;
15629;SDS011;7914;50.842;0.166;2022-07-17T13:55:18;5.03;;;3.53;;
15629;SDS011;7914;50.842;0.166;2022-07-17T13:57:44;4.88;;;3.28;;
15629;SDS011;7914;50.842;0.166;2022-07-17T14:00:10;3.50;;;3.20;;
15629;SDS011;7914;50.842;0.166;2022-07-17T14:02:37;3.60;;;3.30;;
15629;SDS011;7914;50.842;0.166;2022-07-17T14:05:04;3.92;;;3.53;;
15629;SDS011;7914;50.842;0.166;2022-07-17T14:07:31;3.63;;;3.33;;
15629;SDS011;7914;50.842;0.166;2022-07-17T14:09:57;4.40;;;3.60;;
15629;SDS011;7914;50.842;0.166;2022-07-17T14:12:23;3.53;;;3.10;;
15629;SDS011;7914;50.842;0.166;2022-07-17T14:14:48;3.92;;;3.53;;
15629;SDS011;7914;50.842;0.166;2022-07-17T14:17:14;3.95;;;3.30;;
15629;SDS011;7914;50.842;0.166;2022-07-17T14:19:42;5.63;;;3.55;;
15629;SDS011;7914;50.842;0.166;2022-07-17T14:22:12;4.57;;;4.13;;
15629;SDS011;7914;50.842;0.166;2022-07-17T14:24:37;4.75;;;3.67;;
15629;SDS011;7914;50.842;0.166;2022-07-17T14:27:03;4.75;;;4.22;;
15629;SDS011;7914;50.842;0.166;2022-07-17T14:29:29;6.68;;;4.32;;
15629;SDS011;7914;50.842;0.166;2022-07-17T14:31:55;5.53;;;5.03;;
15629;SDS011;7914;50.842;0.166;2022-07-17T14:34:21;5.55;;;5.05;;
15629;SDS011;7914;50.842;0.166;2022-07-17T14:36:47;4.53;;;3.70;;
15629;SDS011;7914;50.842;0.166;2022-07-17T14:39:14;4.35;;;3.40;;
15629;SDS011;7914;50.842;0.166;2022-07-17T14:41:40;5.07;;;3.92;;
15629;SDS011;7914;50.842;0.166;2022-07-17T14:44:09;6.85;;;6.15;;
15629;SDS011;7914;50.842;0.166;2022-07-17T14:46:36;10.20;;;4.32;;
15629;SDS011;7914;50.842;0.166;2022-07-17T14:49:01;4.65;;;4.20;;
15629;SDS011;7914;50.842;0.166;2022-07-17T14:51:27;4.13;;;3.72;;
15629;SDS011;7914;50.842;0.166;2022-07-17T14:53:53;6.28;;;3.72;;
15629;SDS011;7914;50.842;0.166;2022-07-17T14:56:19;3.58;;;3.28;;
15629;SDS011;7914;50.842;0.166;2022-07-17T14:58:44;4.47;;;3.58;;
15629;SDS011;7914;50.842;0.166;2022-07-17T15:01:10;10.10;;;5.68;;
15629;SDS011;7914;50.842;0.166;2022-07-17T15:03:36;8.32;;;4.93;;
15629;SDS011;7914;50.842;0.166;2022-07-17T15:06:02;4.32;;;3.65;;
15629;SDS011;7914;50.842;0.166;2022-07-17T15:08:28;4.32;;;3.50;;
15629;SDS011;7914;50.842;0.166;2022-07-17T15:10:54;4.13;;;3.60;;
15629;SDS011;7914;50.842;0.166;2022-07-17T15:13:19;3.95;;;3.55;;